createdAt,value
2018-12-08T02:46:20.549Z,6.90
2018-12-08T02:48:48.941Z,6.90
2018-12-08T02:51:17.356Z,6.80
2018-12-08T02:53:45.741Z,6.90
2018-12-08T02:56:14.252Z,6.80
2018-12-08T02:58:42.644Z,6.80
2018-12-08T03:01:11.136Z,6.70
2018-12-08T03:03:39.534Z,6.70
2018-12-08T03:06:07.961Z,6.70
2018-12-08T03:08:36.353Z,6.60
2018-12-08T03:11:04.769Z,6.60
2018-12-08T03:13:33.146Z,6.50
2018-12-08T03:16:01.541Z,6.50
2018-12-08T03:18:29.928Z,6.50
2018-12-08T03:20:58.328Z,6.40
2018-12-08T03:23:26.709Z,6.40
2018-12-08T03:25:55.101Z,6.50
2018-12-08T03:28:23.487Z,6.40
2018-12-08T03:30:51.919Z,6.40
2018-12-08T03:33:20.396Z,6.30
2018-12-08T03:35:48.756Z,6.20
2018-12-08T03:38:17.105Z,6.30
2018-12-08T03:40:45.613Z,6.30
2018-12-08T03:43:14.077Z,6.30
2018-12-08T03:45:42.456Z,6.20
2018-12-08T03:48:10.810Z,6.20
2018-12-08T03:50:39.207Z,6.30
2018-12-08T03:53:07.574Z,6.20
2018-12-08T03:55:35.989Z,6.20
2018-12-08T03:58:04.525Z,6.30
2018-12-08T04:00:32.893Z,6.30
2018-12-08T04:03:01.271Z,6.40
2018-12-08T04:05:29.657Z,6.50
2018-12-08T04:07:58.027Z,6.40
2018-12-08T04:10:26.405Z,6.40
2018-12-08T04:12:54.770Z,6.50
2018-12-08T04:15:23.146Z,6.50
2018-12-08T04:17:51.532Z,6.50
2018-12-08T04:20:19.893Z,6.50
2018-12-08T04:22:48.260Z,6.40
2018-12-08T04:25:16.641Z,6.30
2018-12-08T04:27:44.991Z,6.30
2018-12-08T04:30:13.477Z,6.30
2018-12-08T04:32:41.889Z,6.40
2018-12-08T04:35:10.386Z,6.50
2018-12-08T04:37:38.795Z,6.50
2018-12-08T04:40:07.430Z,6.40
2018-12-08T04:42:35.818Z,6.50
2018-12-08T04:45:04.561Z,6.60
2018-12-08T04:47:32.965Z,6.60
2018-12-08T04:50:01.376Z,6.70
2018-12-08T04:52:29.781Z,6.60
2018-12-08T04:54:58.313Z,6.60
2018-12-08T04:57:26.699Z,6.70
2018-12-08T04:59:55.086Z,6.70
2018-12-08T05:02:23.456Z,6.70
2018-12-08T05:04:51.860Z,6.70
2018-12-08T05:07:20.255Z,6.70
2018-12-08T05:09:48.621Z,6.70
2018-12-08T05:12:17.021Z,6.70
2018-12-08T05:14:45.404Z,6.70
2018-12-08T05:17:13.809Z,6.60
2018-12-08T05:19:42.180Z,6.60
2018-12-08T05:22:10.588Z,6.50
2018-12-08T05:24:38.983Z,6.50
2018-12-08T05:27:07.371Z,6.40
2018-12-08T05:29:35.773Z,6.40
2018-12-08T05:32:04.408Z,6.40
2018-12-08T05:34:32.788Z,6.40
2018-12-08T05:37:01.204Z,6.40
2018-12-08T05:39:29.599Z,6.40
2018-12-08T05:41:58.018Z,6.40
2018-12-08T05:44:26.410Z,6.40
2018-12-08T05:46:54.823Z,6.30
2018-12-08T05:49:23.204Z,6.30
2018-12-08T05:51:51.628Z,6.40
2018-12-08T05:54:20.020Z,6.30
2018-12-08T05:56:48.404Z,6.30
2018-12-08T05:59:16.782Z,6.30
2018-12-08T06:01:45.196Z,6.30
2018-12-08T06:04:13.577Z,6.30
2018-12-08T06:06:41.974Z,6.30
2018-12-08T06:09:10.361Z,6.30
2018-12-08T06:11:38.760Z,6.30
2018-12-08T06:14:07.152Z,6.30
2018-12-08T06:16:35.555Z,6.30
2018-12-08T06:19:03.951Z,6.30
2018-12-08T06:21:36.643Z,6.30
2018-12-08T06:24:05.170Z,6.40
2018-12-08T06:26:40.916Z,6.40
2018-12-08T06:29:09.324Z,6.30
2018-12-08T06:31:37.706Z,6.40
2018-12-08T06:34:06.074Z,6.40
2018-12-08T06:36:34.434Z,6.40
2018-12-08T06:39:02.904Z,6.50
2018-12-08T06:41:31.303Z,6.50
2018-12-08T06:43:59.668Z,6.50
2018-12-08T06:46:28.033Z,6.60
2018-12-08T06:48:56.383Z,6.60
2018-12-08T06:51:24.756Z,6.60
2018-12-08T06:53:53.120Z,6.60
2018-12-08T06:56:21.494Z,6.60
2018-12-08T06:58:49.842Z,6.60
2018-12-08T07:01:18.204Z,6.60
2018-12-08T07:03:46.566Z,6.60
2018-12-08T07:06:14.925Z,6.60
2018-12-08T07:08:43.284Z,6.60
2018-12-08T07:11:11.657Z,6.60
2018-12-08T07:13:40.010Z,6.60
2018-12-08T07:16:08.375Z,6.70
2018-12-08T07:18:36.732Z,6.70
2018-12-08T07:21:05.175Z,6.70
2018-12-08T07:23:33.592Z,6.80
2018-12-08T07:26:02.177Z,6.70
2018-12-08T07:28:30.530Z,6.70
2018-12-08T07:30:58.900Z,6.70
2018-12-08T07:33:27.264Z,6.70
2018-12-08T07:35:55.620Z,6.70
2018-12-08T07:38:23.991Z,6.60
2018-12-08T07:40:52.353Z,6.70
2018-12-08T07:43:20.735Z,6.70
2018-12-08T07:45:49.096Z,6.70
2018-12-08T07:48:17.455Z,6.70
2018-12-08T07:50:45.812Z,6.70
2018-12-08T07:53:14.176Z,6.80
2018-12-08T07:55:42.527Z,6.80
2018-12-08T07:58:10.912Z,6.80
2018-12-08T08:00:39.275Z,6.80
2018-12-08T08:03:07.655Z,6.80
2018-12-08T08:05:35.997Z,6.90
2018-12-08T08:10:32.439Z,6.90
2018-12-08T08:13:00.813Z,6.90
2018-12-08T08:15:29.174Z,6.90
2018-12-08T08:17:57.532Z,7.00
2018-12-08T08:20:25.985Z,7.00
2018-12-08T08:22:54.352Z,7.00
2018-12-08T08:25:22.703Z,7.00
2018-12-08T08:27:51.081Z,7.00
2018-12-08T08:30:19.437Z,7.10
2018-12-08T08:32:47.836Z,7.10
2018-12-08T08:35:16.214Z,7.10
2018-12-08T08:37:44.592Z,7.20
2018-12-08T08:40:13.064Z,7.20
2018-12-08T08:42:41.429Z,7.30
2018-12-08T08:45:09.897Z,7.50
2018-12-08T08:47:38.396Z,7.60
2018-12-08T08:50:09.403Z,7.60
2018-12-08T09:01:30.116Z,7.60
2018-12-08T09:03:58.490Z,7.60
2018-12-08T09:06:26.976Z,7.60
2018-12-08T09:08:55.341Z,7.60
2018-12-08T09:11:26.940Z,7.60
2018-12-08T09:13:55.308Z,7.60
2018-12-08T09:16:23.671Z,7.70
2018-12-08T09:18:52.069Z,7.80
2018-12-08T09:21:20.433Z,7.70
2018-12-08T09:23:48.813Z,7.80
2018-12-08T09:26:17.184Z,7.90
2018-12-08T09:28:45.668Z,7.90
2018-12-08T09:31:14.148Z,7.90
2018-12-08T09:33:42.576Z,7.90
2018-12-08T09:36:10.997Z,7.90
2018-12-08T09:38:39.421Z,7.90
2018-12-08T09:41:07.837Z,8.00
2018-12-08T09:43:36.275Z,8.00
2018-12-08T09:46:04.686Z,8.00
2018-12-08T09:51:01.428Z,8.00
2018-12-08T09:53:29.846Z,8.00
2018-12-08T09:55:58.225Z,8.00
2018-12-08T09:58:26.638Z,8.00
2018-12-08T10:00:55.026Z,8.00
2018-12-08T10:03:23.447Z,8.10
2018-12-08T10:05:51.844Z,8.10
2018-12-08T10:08:20.259Z,8.10
2018-12-08T10:10:48.688Z,8.10
2018-12-08T10:13:17.096Z,8.10
2018-12-08T10:15:45.491Z,8.10
2018-12-08T10:18:13.906Z,8.10
2018-12-08T10:20:42.405Z,8.10
2018-12-08T10:23:10.808Z,8.10
2018-12-08T10:25:39.197Z,8.10
2018-12-08T10:28:07.604Z,8.10
2018-12-08T10:30:35.998Z,8.10
2018-12-08T10:33:04.608Z,8.10
2018-12-08T10:35:33.037Z,8.10
2018-12-08T10:38:01.441Z,8.10
2018-12-08T10:40:29.818Z,8.10
2018-12-08T10:42:58.230Z,8.10
2018-12-08T10:45:26.596Z,8.10
2018-12-08T10:47:54.984Z,8.10
2018-12-08T10:50:23.343Z,8.10
2018-12-08T10:52:51.697Z,8.10
2018-12-08T10:55:20.077Z,8.00
2018-12-08T10:57:48.430Z,8.00
2018-12-08T11:00:22.126Z,8.00
2018-12-08T11:02:54.160Z,7.90
2018-12-08T11:05:22.781Z,8.00
2018-12-08T11:07:51.265Z,8.10
2018-12-08T11:10:19.636Z,8.30
2018-12-08T11:12:47.994Z,8.40
2018-12-08T11:15:16.372Z,8.40
2018-12-08T11:17:44.732Z,8.50
2018-12-08T11:20:13.104Z,8.40
2018-12-08T11:22:41.480Z,8.40
2018-12-08T11:25:09.853Z,8.40
2018-12-08T11:27:38.229Z,8.30
2018-12-08T11:30:06.818Z,8.30
2018-12-08T11:32:35.210Z,8.30
2018-12-08T11:35:03.692Z,8.30
2018-12-08T11:37:32.049Z,8.40
2018-12-08T11:40:00.467Z,8.40
2018-12-08T11:42:28.821Z,8.50
2018-12-08T11:44:57.424Z,8.60
2018-12-08T11:47:25.780Z,8.50
2018-12-08T11:49:54.150Z,8.50
2018-12-08T11:52:22.507Z,8.40
2018-12-08T11:54:50.898Z,8.40
2018-12-08T11:57:19.260Z,8.50
2018-12-08T11:59:47.644Z,8.50
2018-12-08T12:02:16.644Z,8.40
2018-12-08T12:04:45.396Z,8.40
2018-12-08T12:07:13.763Z,8.40
2018-12-08T12:09:42.136Z,8.40
2018-12-08T12:12:10.505Z,8.40
2018-12-08T12:14:44.370Z,8.40
2018-12-08T12:17:12.743Z,8.40
2018-12-08T12:19:41.106Z,8.40
2018-12-08T12:22:09.453Z,8.40
2018-12-08T12:24:37.830Z,8.40
2018-12-08T12:27:06.223Z,8.40
2018-12-08T12:29:34.652Z,8.40
2018-12-08T12:32:03.048Z,8.40
2018-12-08T12:34:31.444Z,8.40
2018-12-08T12:36:59.850Z,8.30
2018-12-08T12:39:28.252Z,8.40
2018-12-08T12:41:56.727Z,8.40
2018-12-08T12:44:25.212Z,8.50
2018-12-08T12:46:53.592Z,8.50
2018-12-08T12:49:22.035Z,8.60
2018-12-08T12:51:50.426Z,8.60
2018-12-08T12:54:18.825Z,8.70
2018-12-08T12:56:47.332Z,9.00
2018-12-08T12:59:15.759Z,8.90
2018-12-08T13:01:44.400Z,8.70
2018-12-08T13:04:12.822Z,8.70
2018-12-08T13:06:41.187Z,8.80
2018-12-08T13:11:37.656Z,8.50
2018-12-08T13:14:06.051Z,8.50
2018-12-08T13:16:34.445Z,8.50
2018-12-08T13:19:02.821Z,8.60
2018-12-08T13:21:31.207Z,8.70
2018-12-08T13:23:59.648Z,8.50
2018-12-08T13:26:28.031Z,8.50
2018-12-08T13:28:56.405Z,8.40
2018-12-08T13:31:24.808Z,8.30
2018-12-08T13:33:53.615Z,8.40
2018-12-08T13:36:22.038Z,8.40
2018-12-08T13:38:50.430Z,8.30
2018-12-08T13:41:18.825Z,8.30
2018-12-08T13:43:53.936Z,8.30
2018-12-08T13:46:22.638Z,8.10
2018-12-08T13:48:51.096Z,8.00
2018-12-08T13:51:19.683Z,7.90
2018-12-08T13:53:48.051Z,7.90
2018-12-08T13:56:16.427Z,8.10
2018-12-08T13:58:44.798Z,7.90
2018-12-08T14:01:13.190Z,7.80
2018-12-08T14:03:41.584Z,7.90
2018-12-08T14:06:09.961Z,7.90
2018-12-08T14:08:38.335Z,7.90
2018-12-08T14:11:06.723Z,7.90
2018-12-08T14:13:35.207Z,7.80
2018-12-08T14:16:03.604Z,7.80
2018-12-08T14:18:31.963Z,7.80
2018-12-08T14:21:00.472Z,7.90
2018-12-08T14:23:28.822Z,7.90
2018-12-08T14:25:57.202Z,7.90
2018-12-08T14:28:25.685Z,7.90
2018-12-08T14:30:54.072Z,7.80
2018-12-08T14:33:22.509Z,7.80
2018-12-08T14:35:50.981Z,7.80
2018-12-08T14:38:19.397Z,7.80
2018-12-08T14:40:47.816Z,7.80
2018-12-08T14:43:16.254Z,7.80
2018-12-08T14:45:44.683Z,7.80
2018-12-08T14:48:13.071Z,7.80
2018-12-08T14:50:41.463Z,7.80
2018-12-08T14:53:09.858Z,7.80
2018-12-08T14:55:38.244Z,7.80
2018-12-08T14:58:06.651Z,7.80
2018-12-08T15:00:35.044Z,7.80
2018-12-08T15:03:03.461Z,7.80
2018-12-08T15:05:31.844Z,7.80
2018-12-08T15:08:00.257Z,7.90
2018-12-08T15:10:28.646Z,7.90
2018-12-08T15:12:57.049Z,7.90
2018-12-08T15:15:25.468Z,7.80
2018-12-08T15:17:53.878Z,7.80
2018-12-08T15:20:22.271Z,7.80
2018-12-08T15:22:50.664Z,7.80
2018-12-08T15:25:19.056Z,7.70
2018-12-08T15:27:47.469Z,7.70
2018-12-08T15:30:15.864Z,7.70
2018-12-08T15:32:44.364Z,7.80
2018-12-08T15:35:12.829Z,7.80
2018-12-08T15:37:41.420Z,7.80
2018-12-08T15:40:10.636Z,7.80
2018-12-08T15:42:39.736Z,7.80
2018-12-08T15:45:10.262Z,7.80
2018-12-08T15:47:38.744Z,7.80
2018-12-08T15:50:09.344Z,7.90
2018-12-08T15:52:37.826Z,7.90
2018-12-08T15:55:06.504Z,8.00
2018-12-08T15:57:34.869Z,8.00
2018-12-08T16:00:03.701Z,8.00
2018-12-08T16:02:32.319Z,7.90
2018-12-08T16:05:00.700Z,8.00
2018-12-08T16:07:29.116Z,8.00
2018-12-08T16:09:57.481Z,8.10
2018-12-08T16:12:25.867Z,8.00
2018-12-08T16:14:54.341Z,8.00
2018-12-08T16:17:22.733Z,8.10
2018-12-08T16:19:51.096Z,8.10
2018-12-08T16:22:19.664Z,8.10
2018-12-08T16:24:49.689Z,8.00
2018-12-08T16:27:18.471Z,8.10
2018-12-08T16:29:46.874Z,8.10
2018-12-08T16:32:15.251Z,8.10
2018-12-08T16:34:43.601Z,8.10
2018-12-08T16:37:11.980Z,8.20
2018-12-08T16:39:40.321Z,8.20
2018-12-08T16:42:08.696Z,8.20
2018-12-08T16:44:37.046Z,8.10
2018-12-08T16:47:05.656Z,8.20
2018-12-08T16:49:34.031Z,8.20
2018-12-08T16:52:02.387Z,8.40
2018-12-08T16:54:30.936Z,8.30
2018-12-08T16:56:59.301Z,8.30
2018-12-08T16:59:27.702Z,8.40
2018-12-08T17:01:56.188Z,8.30
2018-12-08T17:04:24.576Z,8.30
2018-12-08T17:06:52.926Z,8.40
2018-12-08T17:09:21.302Z,8.40
2018-12-08T17:11:49.663Z,8.30
2018-12-08T17:14:18.059Z,8.40
2018-12-08T17:16:46.421Z,8.30
2018-12-08T17:19:14.831Z,8.40
2018-12-08T17:21:43.212Z,8.40
2018-12-08T17:24:11.616Z,8.30
2018-12-08T17:26:39.967Z,8.40
2018-12-08T17:29:08.349Z,8.40
2018-12-08T17:31:36.720Z,8.30
2018-12-08T17:34:05.195Z,8.30
2018-12-08T17:36:33.565Z,8.40
2018-12-08T17:39:01.965Z,8.30
2018-12-08T17:41:30.314Z,8.30
2018-12-08T17:43:58.688Z,8.40
2018-12-08T17:46:29.044Z,8.40
2018-12-08T17:48:57.432Z,8.40
2018-12-08T17:51:25.802Z,8.40
2018-12-08T17:53:54.177Z,8.40
2018-12-08T17:56:22.530Z,8.30
2018-12-08T17:58:51.050Z,8.40
2018-12-08T18:01:19.417Z,8.40
2018-12-08T18:03:47.805Z,8.40
2018-12-08T18:06:18.286Z,8.40
2018-12-08T18:08:48.207Z,8.50
2018-12-08T18:11:16.593Z,8.40
2018-12-08T18:13:44.948Z,8.50
2018-12-08T18:16:13.460Z,8.60
2018-12-08T18:18:41.815Z,8.60
2018-12-08T18:21:10.467Z,8.50
2018-12-08T18:23:38.893Z,8.40
2018-12-08T18:26:07.309Z,8.50
2018-12-08T18:28:35.746Z,8.50
2018-12-08T18:31:04.175Z,8.50
2018-12-08T18:33:32.612Z,8.50
2018-12-08T18:36:01.090Z,8.50
2018-12-08T18:38:29.730Z,8.50
2018-12-08T18:40:58.375Z,8.60
2018-12-08T18:43:26.868Z,8.50
2018-12-08T18:45:55.284Z,8.50
2018-12-08T18:48:23.700Z,8.50
2018-12-08T18:50:52.144Z,8.60
2018-12-08T18:53:20.596Z,8.60
2018-12-08T18:55:49.024Z,8.50
2018-12-08T18:58:17.466Z,8.60
2018-12-08T19:00:46.015Z,8.70
2018-12-08T19:03:14.436Z,8.60
2018-12-08T19:05:42.868Z,8.60
2018-12-08T19:08:11.265Z,8.60
2018-12-08T19:10:39.699Z,8.60
2018-12-08T19:13:08.107Z,8.70
2018-12-08T19:15:36.621Z,8.70
2018-12-08T19:18:05.100Z,8.80
2018-12-08T19:20:33.529Z,8.80
2018-12-08T19:23:01.942Z,8.80
2018-12-08T19:25:30.377Z,8.80
2018-12-08T19:27:58.825Z,8.80
2018-12-08T19:30:27.261Z,8.80
2018-12-08T19:32:55.741Z,8.80
2018-12-08T19:35:24.188Z,8.80
2018-12-08T19:37:52.614Z,8.80
2018-12-08T19:40:21.157Z,8.80
2018-12-08T19:42:49.628Z,8.80
2018-12-08T19:45:18.164Z,8.80
2018-12-08T19:47:46.614Z,8.80
2018-12-08T19:50:15.038Z,8.80
2018-12-08T19:52:43.464Z,8.80
2018-12-08T19:55:12.780Z,8.70
2018-12-08T19:57:41.246Z,8.70
2018-12-08T20:00:11.940Z,8.70
2018-12-08T20:02:40.472Z,8.70
2018-12-08T20:05:09.132Z,8.70
2018-12-08T20:07:37.571Z,8.70
2018-12-08T20:10:06.336Z,8.70
2018-12-08T20:12:34.804Z,8.70
2018-12-08T20:15:03.265Z,8.60
2018-12-08T20:17:31.716Z,8.70
2018-12-08T20:20:00.096Z,8.60
2018-12-08T20:22:28.521Z,8.70
2018-12-08T20:24:56.910Z,8.70
2018-12-08T20:27:25.307Z,8.70
2018-12-08T20:29:53.724Z,8.70
2018-12-08T20:32:22.196Z,8.60
2018-12-08T20:34:52.555Z,8.60
2018-12-08T20:37:21.060Z,8.60
2018-12-08T20:39:49.462Z,8.60
2018-12-08T20:42:17.887Z,8.60
2018-12-08T20:44:46.292Z,8.70
2018-12-08T20:47:14.708Z,8.70
2018-12-08T20:49:43.124Z,8.70
2018-12-08T20:52:11.524Z,8.70
2018-12-08T20:54:39.934Z,8.70
2018-12-08T20:57:08.316Z,8.70
2018-12-08T20:59:36.755Z,8.70
2018-12-08T21:02:05.274Z,8.70
2018-12-08T21:04:33.706Z,8.70
2018-12-08T23:14:05.085Z,9.40
2018-12-08T23:16:35.214Z,9.60
2018-12-08T23:19:03.731Z,9.50
2018-12-08T23:21:32.120Z,9.50
2018-12-08T23:24:00.472Z,9.50
2018-12-08T23:26:28.927Z,9.50
2018-12-08T23:28:57.379Z,9.60
2018-12-08T23:31:25.866Z,9.80
2018-12-08T23:33:54.422Z,9.50
2018-12-08T23:36:23.168Z,9.20
2018-12-08T23:38:51.655Z,9.20
2018-12-08T23:41:20.052Z,9.40
2018-12-08T23:43:48.473Z,9.50
2018-12-08T23:46:16.873Z,9.40
2018-12-08T23:48:45.521Z,9.50
2018-12-08T23:51:13.925Z,9.50
2018-12-08T23:53:42.812Z,9.60
2018-12-08T23:56:15.120Z,9.70
